Time;durP1;ratioP1;P1;durP2;ratioP2;P2;SDS_P1;SDS_P2;PMS_P1;PMS_P2;Temp;Humidity;BMP_temperature;BMP_pressure;BME280_temperature;BME280_humidity;BME280_pressure;Samples;Min_cycle;Max_cycle;Signal;HPM_P1;HPM_P2
2022/10/08 00:01:08;;;;;;;68.07;40.40;;;11.20;99.90;;;;;;5090835;28;20109;-86
2022/10/08 00:03:37;;;;;;;69.38;37.13;;;11.30;99.90;;;;;;5067592;28;20487;-85
2022/10/08 00:06:11;;;;;;;75.35;40.40;;;11.20;99.90;;;;;;5083589;28;20024;-85
2022/10/08 00:08:39;;;;;;;80.20;43.10;;;11.30;99.90;;;;;;5085343;28;20040;-86
2022/10/08 00:11:07;;;;;;;77.90;43.33;;;11.30;99.90;;;;;;5066827;28;20550;-85
2022/10/08 00:13:41;;;;;;;75.50;42.22;;;11.40;99.90;;;;;;5088643;28;20066;-85
2022/10/08 00:16:17;;;;;;;82.80;45.83;;;11.40;99.90;;;;;;5085644;28;20024;-85
2022/10/08 00:18:44;;;;;;;82.97;45.47;;;11.50;99.90;;;;;;5072141;28;20487;-85
2022/10/08 00:21:15;;;;;;;81.35;44.38;;;11.50;99.90;;;;;;5066651;28;20562;-85
2022/10/08 00:23:41;;;;;;;74.25;44.78;;;11.60;99.90;;;;;;5082666;28;20096;-86
2022/10/08 00:26:07;;;;;;;82.57;42.72;;;11.50;99.90;;;;;;5071507;28;20024;-85
2022/10/08 00:28:35;;;;;;;80.30;45.15;;;11.60;99.90;;;;;;5068363;28;20478;-83
2022/10/08 00:31:10;;;;;;;83.47;45.55;;;11.50;99.90;;;;;;5087801;28;20523;-83
2022/10/08 00:33:36;;;;;;;91.15;49.65;;;11.40;99.90;;;;;;5069050;28;20036;-85
2022/10/08 00:36:03;;;;;;;92.85;51.75;;;11.30;99.90;;;;;;5064497;28;20039;-83
2022/10/08 00:38:29;;;;;;;99.57;53.60;;;11.30;99.90;;;;;;5069983;28;20074;-85
2022/10/08 00:40:55;;;;;;;100.40;51.42;;;11.50;99.90;;;;;;5082247;28;20426;-85
2022/10/08 00:44:04;;;;;;;111.25;54.03;;;11.50;99.90;;;;;;5085130;28;20032;-85
2022/10/08 00:46:41;;;;;;;97.07;51.03;;;11.60;99.90;;;;;;5062434;28;20036;-85
2022/10/08 00:49:16;;;;;;;88.97;49.65;;;11.70;99.90;;;;;;5083817;28;20037;-85
2022/10/08 00:51:48;;;;;;;92.95;48.03;;;11.70;99.90;;;;;;5087159;28;20479;-85
2022/10/08 00:54:15;;;;;;;111.05;56.42;;;11.60;99.90;;;;;;5090033;28;20487;-85
2022/10/08 00:56:42;;;;;;;107.90;54.10;;;11.50;99.90;;;;;;5082339;28;20025;-85
2022/10/08 00:59:10;;;;;;;102.80;51.90;;;11.50;99.90;;;;;;5074503;28;20051;-85
2022/10/08 01:01:36;;;;;;;120.72;58.40;;;11.30;99.90;;;;;;5083759;28;20021;-85
2022/10/08 01:04:05;;;;;;;120.63;56.83;;;11.30;99.90;;;;;;5082984;28;20028;-85
2022/10/08 01:07:09;;;;;;;113.10;55.15;;;11.30;99.90;;;;;;5085870;28;20028;-86
2022/10/08 01:09:41;;;;;;;94.45;48.38;;;11.30;99.90;;;;;;5096803;28;20028;-85
2022/10/08 01:12:22;;;;;;;115.05;58.78;;;11.30;99.90;;;;;;5070076;28;20028;-85
2022/10/08 01:15:02;;;;;;;104.30;53.70;;;11.30;99.90;;;;;;5077683;28;20028;-85
2022/10/08 01:17:46;;;;;;;107.40;56.40;;;11.30;99.90;;;;;;5092192;28;20442;-85
2022/10/08 01:20:30;;;;;;;112.82;58.53;;;11.30;99.90;;;;;;5083729;28;20021;-85
2022/10/08 01:23:24;;;;;;;110.85;54.97;;;11.40;99.90;;;;;;5075104;28;20028;-85
2022/10/08 01:25:57;;;;;;;102.43;52.22;;;11.50;99.90;;;;;;5085692;28;20455;-85
2022/10/08 01:28:50;;;;;;;107.05;53.17;;;11.60;99.90;;;;;;5092255;28;20028;-85
2022/10/08 01:31:36;;;;;;;114.32;55.60;;;11.70;99.90;;;;;;5087785;28;20131;-85
2022/10/08 01:34:20;;;;;;;125.35;61.90;;;11.70;99.90;;;;;;5091326;28;20032;-85
2022/10/08 01:36:49;;;;;;;110.57;56.95;;;11.90;99.90;;;;;;5088583;28;20467;-85
2022/10/08 01:39:24;;;;;;;112.60;57.15;;;11.90;99.90;;;;;;5085837;28;20383;-85
2022/10/08 01:41:57;;;;;;;120.60;55.95;;;11.90;99.90;;;;;;5081907;28;20032;-85
2022/10/08 01:44:50;;;;;;;130.25;60.75;;;12.00;99.90;;;;;;5087799;28;20032;-86
2022/10/08 01:47:22;;;;;;;115.95;61.38;;;12.00;99.90;;;;;;5059136;28;20036;-86
2022/10/08 01:50:12;;;;;;;107.55;57.92;;;12.00;99.90;;;;;;5091987;28;20031;-85
2022/10/08 01:56:26;;;;;;;93.97;49.70;;;12.00;99.90;;;;;;5052210;28;20031;-86
2022/10/08 01:59:40;;;;;;;92.68;49.78;;;12.10;99.90;;;;;;5088739;28;20032;-86
2022/10/08 02:02:22;;;;;;;87.75;47.88;;;12.10;99.90;;;;;;5008975;28;20025;-86
2022/10/08 02:04:50;;;;;;;97.13;47.90;;;12.10;99.90;;;;;;5087589;28;20036;-86
2022/10/08 02:07:27;;;;;;;85.35;44.22;;;12.10;99.90;;;;;;5070411;28;20483;-83
2022/10/08 02:10:02;;;;;;;82.05;43.42;;;12.20;99.90;;;;;;5073617;28;20025;-86
2022/10/08 02:12:28;;;;;;;73.60;43.30;;;12.20;99.90;;;;;;5071533;28;20039;-86
2022/10/08 02:14:55;;;;;;;75.07;41.50;;;12.20;99.90;;;;;;5083036;28;20471;-86
2022/10/08 02:17:53;;;;;;;75.72;41.33;;;12.20;99.90;;;;;;5089264;28;20030;-85
2022/10/08 02:20:37;;;;;;;78.15;41.72;;;12.20;99.90;;;;;;5053947;28;20044;-85
2022/10/08 02:23:28;;;;;;;76.90;42.40;;;12.10;99.90;;;;;;5087832;28;20035;-86
2022/10/08 02:25:58;;;;;;;71.97;39.83;;;12.00;99.90;;;;;;5091877;28;20035;-85
2022/10/08 02:28:49;;;;;;;84.20;41.47;;;12.00;99.90;;;;;;5087658;28;20079;-84
2022/10/08 02:31:29;;;;;;;73.10;38.72;;;12.00;99.90;;;;;;5078796;28;20028;-86
2022/10/08 02:34:16;;;;;;;82.25;40.78;;;11.90;99.90;;;;;;5070852;28;20032;-85
2022/10/08 02:36:48;;;;;;;73.80;40.15;;;11.80;99.90;;;;;;5085658;28;20043;-85
2022/10/08 02:39:15;;;;;;;80.45;44.13;;;11.70;99.90;;;;;;5073525;28;20809;-85
2022/10/08 02:41:50;;;;;;;88.00;42.88;;;11.70;99.90;;;;;;5070422;28;20027;-85
2022/10/08 02:44:21;;;;;;;80.25;39.97;;;11.60;99.90;;;;;;5091079;28;20043;-86
2022/10/08 02:46:51;;;;;;;78.75;36.78;;;11.50;99.90;;;;;;5070902;28;20032;-86
2022/10/08 02:49:25;;;;;;;75.53;38.33;;;11.40;99.90;;;;;;5084958;28;20036;-85
2022/10/08 02:51:53;;;;;;;71.40;37.53;;;11.20;99.90;;;;;;5071535;28;20595;-85
2022/10/08 02:54:21;;;;;;;89.70;41.58;;;11.20;99.90;;;;;;5085787;28;20032;-86
2022/10/08 02:57:02;;;;;;;87.95;41.00;;;11.10;99.90;;;;;;5070809;28;20046;-85
2022/10/08 02:59:28;;;;;;;86.85;43.33;;;11.10;99.90;;;;;;5087279;28;20039;-86
2022/10/08 03:01:58;;;;;;;87.35;42.88;;;11.10;99.90;;;;;;5074701;28;20487;-86
2022/10/08 03:04:32;;;;;;;82.43;41.00;;;11.20;99.90;;;;;;5067474;28;20147;-85
2022/10/08 03:06:59;;;;;;;77.20;40.03;;;11.30;99.90;;;;;;5091903;28;20258;-85
2022/10/08 03:09:32;;;;;;;94.88;45.85;;;11.30;99.90;;;;;;5085815;28;20028;-85
2022/10/08 03:11:59;;;;;;;92.22;45.60;;;11.30;99.90;;;;;;5083660;28;20090;-85
2022/10/08 03:14:25;;;;;;;101.50;46.90;;;11.40;99.90;;;;;;5070354;28;20136;-86
2022/10/08 03:16:52;;;;;;;88.78;45.92;;;11.50;99.90;;;;;;5073968;28;20489;-85
2022/10/08 03:19:19;;;;;;;97.72;48.80;;;11.50;99.90;;;;;;5089861;28;20032;-85
2022/10/08 03:21:48;;;;;;;97.35;48.47;;;11.60;99.90;;;;;;5083562;28;20025;-85
2022/10/08 03:24:15;;;;;;;87.13;44.70;;;11.50;99.90;;;;;;5074954;28;20028;-85
2022/10/08 03:26:41;;;;;;;90.80;44.17;;;11.60;99.90;;;;;;5083518;28;20484;-85
2022/10/08 03:29:08;;;;;;;82.05;45.10;;;11.50;99.90;;;;;;5063998;28;20025;-85
2022/10/08 03:31:34;;;;;;;99.40;45.17;;;11.50;99.90;;;;;;5085550;28;20695;-85
2022/10/08 03:34:00;;;;;;;91.50;43.88;;;11.60;99.90;;;;;;5073799;28;20472;-86
2022/10/08 03:36:27;;;;;;;90.35;43.53;;;11.60;99.90;;;;;;5088642;28;20032;-85
2022/10/08 03:38:52;;;;;;;94.03;42.97;;;11.60;99.90;;;;;;5084347;28;20036;-85
2022/10/08 03:41:18;;;;;;;93.40;43.25;;;11.50;99.90;;;;;;5074729;28;20028;-85
2022/10/08 03:43:44;;;;;;;89.45;42.78;;;11.50;99.90;;;;;;5086719;28;20043;-84
2022/10/08 03:46:11;;;;;;;83.70;41.17;;;11.60;99.90;;;;;;5084708;28;20029;-85
2022/10/08 03:48:37;;;;;;;90.22;40.92;;;11.70;99.90;;;;;;5068420;28;20078;-86
2022/10/08 03:51:13;;;;;;;72.45;40.00;;;11.70;99.90;;;;;;5076705;28;20024;-86
2022/10/08 03:53:41;;;;;;;74.95;40.72;;;11.70;99.90;;;;;;5069627;28;20032;-85
2022/10/08 03:56:10;;;;;;;82.90;40.10;;;11.80;99.90;;;;;;5074970;28;20046;-85
2022/10/08 03:58:36;;;;;;;83.45;38.72;;;11.80;99.90;;;;;;5071384;28;20122;-86
2022/10/08 04:01:07;;;;;;;79.15;39.88;;;11.80;99.90;;;;;;5089814;28;20024;-85
2022/10/08 04:03:33;;;;;;;77.90;40.58;;;11.70;99.90;;;;;;5070876;28;20039;-85
2022/10/08 04:05:59;;;;;;;75.30;40.03;;;11.70;99.90;;;;;;5067631;28;20028;-86
2022/10/08 04:08:25;;;;;;;79.85;38.17;;;11.70;99.90;;;;;;5088449;28;20046;-85
2022/10/08 04:10:52;;;;;;;75.95;39.58;;;11.70;99.90;;;;;;5067542;28;20682;-85
2022/10/08 04:13:18;;;;;;;79.75;39.17;;;11.70;99.90;;;;;;5082879;28;20071;-86
2022/10/08 04:15:46;;;;;;;83.03;39.65;;;11.70;99.90;;;;;;5070373;28;20031;-83
2022/10/08 04:18:12;;;;;;;79.05;38.30;;;11.60;99.90;;;;;;5083277;28;20052;-85
2022/10/08 04:20:42;;;;;;;72.95;39.72;;;11.50;99.90;;;;;;5067597;28;20023;-85
2022/10/08 04:23:08;;;;;;;83.18;41.60;;;11.50;99.90;;;;;;5080763;28;20111;-86
2022/10/08 04:25:35;;;;;;;76.30;40.55;;;11.40;99.90;;;;;;5088622;28;20032;-86
2022/10/08 04:28:04;;;;;;;81.47;40.22;;;11.40;99.90;;;;;;5066484;28;20021;-86
2022/10/08 04:30:30;;;;;;;76.90;40.08;;;11.30;99.90;;;;;;5084994;28;20039;-85
2022/10/08 04:32:57;;;;;;;74.68;41.13;;;11.30;99.90;;;;;;5084795;28;20560;-86
2022/10/08 04:35:23;;;;;;;75.78;39.80;;;11.30;99.90;;;;;;5084382;28;20038;-86
2022/10/08 04:37:49;;;;;;;89.35;43.17;;;11.20;99.90;;;;;;5087030;28;20470;-85
2022/10/08 04:40:14;;;;;;;89.82;43.30;;;11.10;99.90;;;;;;5084080;28;20046;-85
2022/10/08 04:42:40;;;;;;;91.55;44.90;;;11.00;99.90;;;;;;5071562;28;20027;-85
2022/10/08 04:45:06;;;;;;;88.47;45.67;;;10.90;99.90;;;;;;5084136;28;20394;-85
2022/10/08 04:47:31;;;;;;;88.78;46.63;;;10.80;99.90;;;;;;5089564;28;20046;-86
2022/10/08 04:49:57;;;;;;;98.40;48.00;;;10.80;99.90;;;;;;5072108;28;20471;-85
2022/10/08 04:52:23;;;;;;;104.82;50.65;;;10.90;99.90;;;;;;5088625;28;20032;-86
2022/10/08 04:54:48;;;;;;;101.07;51.22;;;10.80;99.90;;;;;;5078760;28;20027;-86
2022/10/08 04:57:14;;;;;;;105.80;49.10;;;10.80;99.90;;;;;;5071548;28;20024;-85
2022/10/08 04:59:40;;;;;;;119.13;50.95;;;10.70;99.90;;;;;;5075184;28;20024;-85
2022/10/08 05:02:05;;;;;;;112.60;51.78;;;10.70;99.90;;;;;;5093804;28;20445;-85
2022/10/08 05:04:31;;;;;;;118.63;52.10;;;10.60;99.90;;;;;;5068926;28;20044;-86
2022/10/08 05:06:56;;;;;;;116.07;50.72;;;10.50;99.90;;;;;;5093999;28;20032;-85
2022/10/08 05:09:22;;;;;;;110.72;51.55;;;10.50;99.90;;;;;;5071555;28;20067;-85
2022/10/08 05:11:50;;;;;;;108.93;49.97;;;10.40;99.90;;;;;;5075978;28;20036;-86
2022/10/08 05:14:16;;;;;;;111.00;51.00;;;10.40;99.90;;;;;;5073500;28;20475;-85
2022/10/08 05:16:41;;;;;;;95.90;47.95;;;10.30;99.90;;;;;;5074849;28;20038;-85
2022/10/08 05:19:07;;;;;;;104.22;48.63;;;10.30;99.90;;;;;;5093383;28;20043;-86
2022/10/08 05:21:33;;;;;;;107.60;50.58;;;10.30;99.90;;;;;;5076800;28;20104;-86
2022/10/08 05:24:08;;;;;;;113.60;49.72;;;10.20;99.90;;;;;;5093572;28;20028;-84
2022/10/08 05:26:36;;;;;;;91.55;44.50;;;10.20;99.90;;;;;;5086820;28;20769;-85
2022/10/08 05:29:02;;;;;;;97.88;42.95;;;10.20;99.90;;;;;;5087578;28;20043;-86
2022/10/08 05:31:29;;;;;;;98.10;41.83;;;10.10;99.90;;;;;;5076740;28;20467;-85
2022/10/08 05:33:55;;;;;;;73.13;38.33;;;10.00;99.90;;;;;;5086164;28;20025;-85
2022/10/08 05:36:24;;;;;;;73.03;36.80;;;9.80;99.90;;;;;;5069843;28;20024;-88
2022/10/08 05:38:50;;;;;;;74.90;33.92;;;9.80;99.90;;;;;;5086705;28;20108;-88
2022/10/08 05:41:24;;;;;;;63.72;30.35;;;9.70;99.90;;;;;;5096135;28;20497;-88
2022/10/08 05:43:50;;;;;;;61.58;25.08;;;9.70;99.90;;;;;;5087957;28;20464;-87
2022/10/08 05:46:16;;;;;;;46.65;25.20;;;9.60;99.90;;;;;;5078420;28;20051;-89
2022/10/08 05:48:43;;;;;;;62.58;23.30;;;9.60;99.90;;;;;;5087766;28;20068;-88
2022/10/08 05:51:11;;;;;;;49.83;22.90;;;9.60;99.90;;;;;;5071150;28;20510;-88
2022/10/08 05:53:38;;;;;;;53.50;20.13;;;9.50;99.90;;;;;;5073006;28;20470;-88
2022/10/08 05:56:06;;;;;;;40.78;18.63;;;9.50;99.90;;;;;;5069201;28;20103;-88
2022/10/08 05:58:33;;;;;;;35.90;17.10;;;9.50;99.90;;;;;;5092411;28;20078;-88
2022/10/08 06:01:23;;;;;;;38.47;17.08;;;9.40;99.90;;;;;;5092797;28;20450;-89
2022/10/08 06:03:54;;;;;;;34.75;16.85;;;9.40;99.90;;;;;;5090636;28;20039;-88
2022/10/08 06:06:21;;;;;;;33.80;16.00;;;9.50;99.90;;;;;;5071146;28;20058;-89
2022/10/08 06:08:51;;;;;;;41.72;18.60;;;9.50;99.90;;;;;;5091952;28;20071;-88
2022/10/08 06:11:17;;;;;;;28.30;14.52;;;9.50;99.90;;;;;;5083509;28;20035;-89
2022/10/08 06:13:43;;;;;;;31.35;13.18;;;9.60;99.90;;;;;;5089840;28;20032;-88
2022/10/08 06:16:14;;;;;;;29.17;13.18;;;9.60;99.90;;;;;;5086554;28;20028;-88
2022/10/08 06:18:41;;;;;;;27.27;11.95;;;9.70;99.90;;;;;;5089949;28;20059;-88
2022/10/08 06:21:09;;;;;;;28.60;13.23;;;9.70;99.90;;;;;;5092567;28;20016;-88
2022/10/08 06:23:36;;;;;;;26.70;12.82;;;9.70;99.90;;;;;;5089968;28;20039;-88
2022/10/08 06:26:05;;;;;;;30.60;12.75;;;9.80;99.90;;;;;;5092095;28;20039;-88
2022/10/08 06:28:32;;;;;;;27.60;11.75;;;9.80;99.90;;;;;;5082856;28;20498;-88
2022/10/08 06:30:58;;;;;;;26.90;12.57;;;9.90;99.90;;;;;;5091175;28;20024;-88
2022/10/08 06:33:24;;;;;;;21.08;11.23;;;10.00;99.90;;;;;;5067155;28;20040;-88
2022/10/08 06:35:50;;;;;;;19.95;11.10;;;10.00;99.90;;;;;;5107861;28;20024;-88
2022/10/08 06:38:15;;;;;;;20.23;9.68;;;10.00;99.90;;;;;;5087004;28;20404;-89
2022/10/08 06:40:41;;;;;;;22.85;10.60;;;10.00;99.90;;;;;;5091019;28;20085;-88
2022/10/08 06:43:12;;;;;;;24.98;9.25;;;10.00;99.90;;;;;;5089958;28;20034;-89
2022/10/08 06:45:38;;;;;;;24.02;10.18;;;10.00;99.90;;;;;;5082791;28;20036;-88
2022/10/08 06:48:04;;;;;;;19.63;8.25;;;10.00;99.90;;;;;;5085730;28;20044;-87
2022/10/08 06:50:30;;;;;;;22.77;8.63;;;10.10;99.90;;;;;;5083421;28;20150;-87
2022/10/08 06:52:56;;;;;;;21.42;7.40;;;10.10;99.90;;;;;;5091372;28;20058;-88
2022/10/08 06:55:22;;;;;;;17.48;6.53;;;10.10;99.90;;;;;;5068904;28;20028;-88
2022/10/08 06:57:48;;;;;;;29.35;7.38;;;10.10;99.90;;;;;;5091037;28;20032;-88
2022/10/08 07:00:13;;;;;;;24.30;6.00;;;10.20;99.90;;;;;;5095014;28;20701;-88
2022/10/08 07:02:39;;;;;;;20.63;8.25;;;10.20;99.90;;;;;;5071183;28;20070;-88
2022/10/08 07:05:05;;;;;;;20.52;8.02;;;10.20;99.90;;;;;;5070350;28;20016;-88
2022/10/08 07:07:31;;;;;;;21.73;7.28;;;10.30;99.90;;;;;;5074009;28;20034;-88
2022/10/08 07:09:56;;;;;;;24.35;11.82;;;10.30;99.90;;;;;;5087450;28;20036;-88
2022/10/08 07:12:22;;;;;;;29.48;7.47;;;10.30;99.90;;;;;;5068172;28;20494;-87
2022/10/08 07:14:48;;;;;;;19.15;8.40;;;10.40;99.90;;;;;;5086499;28;20070;-89
2022/10/08 07:17:13;;;;;;;26.05;7.38;;;10.40;99.90;;;;;;5069083;28;20035;-88
2022/10/08 07:19:39;;;;;;;22.38;8.45;;;10.50;99.90;;;;;;5071002;28;20039;-88
2022/10/08 07:22:05;;;;;;;24.85;9.02;;;10.50;99.90;;;;;;5070191;28;20055;-88
2022/10/08 07:24:30;;;;;;;27.08;8.80;;;10.60;99.90;;;;;;5073679;28;20036;-88
2022/10/08 07:27:30;;;;;;;20.08;8.70;;;10.70;99.90;;;;;;5087978;28;20108;-88
2022/10/08 07:29:55;;;;;;;22.45;7.35;;;10.70;99.90;;;;;;5085207;28;20035;-88
2022/10/08 07:32:21;;;;;;;18.90;7.32;;;10.70;99.90;;;;;;5071331;28;20036;-89
2022/10/08 07:35:09;;;;;;;27.05;7.22;;;10.70;99.90;;;;;;5083800;28;20073;-88
2022/10/08 07:37:34;;;;;;;20.83;8.25;;;10.80;99.90;;;;;;5071971;28;20085;-87
2022/10/08 07:40:00;;;;;;;20.30;8.57;;;10.80;99.90;;;;;;5068849;28;20114;-89
2022/10/08 07:42:25;;;;;;;21.55;6.85;;;10.90;99.90;;;;;;5073073;28;20035;-88
2022/10/08 07:44:51;;;;;;;13.95;5.95;;;11.00;99.90;;;;;;5068549;28;20039;-88
2022/10/08 07:47:17;;;;;;;13.75;5.75;;;11.10;99.90;;;;;;5084202;28;20032;-90
2022/10/08 07:49:42;;;;;;;21.13;10.25;;;11.20;99.90;;;;;;5071381;28;20035;-87
2022/10/08 07:52:08;;;;;;;15.65;7.70;;;11.40;99.90;;;;;;5084444;28;20032;-87
2022/10/08 07:54:33;;;;;;;29.75;7.25;;;11.50;99.90;;;;;;5071882;28;20366;-86
2022/10/08 07:57:01;;;;;;;27.50;10.93;;;11.70;99.90;;;;;;5068914;28;19908;-88
2022/10/08 07:59:27;;;;;;;16.13;5.47;;;11.70;99.90;;;;;;5079114;28;20039;-87
2022/10/08 08:01:53;;;;;;;16.73;4.85;;;11.80;99.90;;;;;;5091410;28;20019;-87
2022/10/08 08:04:18;;;;;;;13.57;5.28;;;11.90;99.90;;;;;;5084834;28;20027;-87
2022/10/08 08:06:47;;;;;;;13.63;4.77;;;12.00;99.90;;;;;;5089437;28;20081;-87
2022/10/08 08:09:13;;;;;;;10.88;4.10;;;12.00;99.90;;;;;;5087332;28;20020;-87
2022/10/08 08:11:39;;;;;;;11.00;3.90;;;12.00;99.90;;;;;;5081074;28;20028;-87
2022/10/08 08:14:06;;;;;;;18.33;4.40;;;12.10;99.90;;;;;;5089755;28;20028;-87
2022/10/08 08:16:31;;;;;;;17.65;5.30;;;12.10;99.90;;;;;;5081970;28;20065;-88
2022/10/08 08:19:00;;;;;;;16.10;5.40;;;12.30;99.90;;;;;;5091124;28;20034;-88
2022/10/08 08:21:28;;;;;;;19.60;5.33;;;12.40;99.90;;;;;;5066786;28;19909;-88
2022/10/08 08:23:57;;;;;;;18.20;5.25;;;12.40;99.90;;;;;;5090925;28;20047;-88
2022/10/08 08:26:28;;;;;;;21.90;4.80;;;12.20;99.90;;;;;;5068938;28;19958;-89
2022/10/08 08:28:57;;;;;;;21.70;4.70;;;12.10;99.90;;;;;;5083533;28;20368;-88
2022/10/08 08:31:25;;;;;;;12.90;5.50;;;12.00;99.90;;;;;;5070347;28;20096;-88
2022/10/08 08:33:53;;;;;;;14.75;4.45;;;11.90;99.90;;;;;;5082989;28;20054;-88
2022/10/08 08:36:23;;;;;;;15.30;5.40;;;11.90;99.90;;;;;;5089143;28;20359;-88
2022/10/08 08:38:48;;;;;;;20.10;5.60;;;12.00;99.90;;;;;;5083444;28;19912;-89
2022/10/08 08:41:36;;;;;;;21.80;7.40;;;12.00;99.90;;;;;;5068764;28;20030;-88
2022/10/08 08:44:09;;;;;;;25.83;5.57;;;12.00;99.90;;;;;;5086181;28;19911;-88
2022/10/08 08:46:39;;;;;;;13.60;6.45;;;12.00;99.90;;;;;;5090428;28;20310;-88
2022/10/08 08:49:30;;;;;;;17.30;5.45;;;12.00;99.90;;;;;;5113130;28;19946;-87
2022/10/08 08:51:58;;;;;;;19.50;5.10;;;11.90;99.90;;;;;;5083451;28;19915;-89
2022/10/08 08:54:24;;;;;;;;;;;11.90;99.90;;;;;;5071521;28;20517;-88
2022/10/08 08:56:52;;;;;;;13.40;4.60;;;12.00;99.90;;;;;;5068538;28;20031;-89
2022/10/08 08:59:45;;;;;;;16.20;4.70;;;12.00;99.90;;;;;;5072353;28;20141;-89
2022/10/08 09:02:21;;;;;;;14.10;5.20;;;12.00;99.90;;;;;;5083243;28;20073;-89
2022/10/08 09:04:59;;;;;;;11.80;4.20;;;12.10;99.90;;;;;;5072286;28;20069;-88
2022/10/08 09:07:32;;;;;;;14.75;4.60;;;12.20;99.90;;;;;;5073016;28;20141;-89
2022/10/08 09:09:58;;;;;;;8.70;3.70;;;12.30;99.90;;;;;;5085288;28;20055;-89
2022/10/08 09:12:51;;;;;;;17.55;4.28;;;12.60;99.90;;;;;;5082908;28;19962;-88
2022/10/08 09:15:22;;;;;;;10.38;3.10;;;13.20;99.90;;;;;;5067626;28;20033;-88
2022/10/08 09:17:51;;;;;;;11.95;2.78;;;13.60;99.90;;;;;;5066165;28;20033;-89
2022/10/08 09:20:17;;;;;;;8.68;2.67;;;14.00;99.90;;;;;;5071041;28;20043;-89
2022/10/08 09:22:44;;;;;;;13.23;2.90;;;14.10;99.90;;;;;;5085273;28;20032;-89
2022/10/08 09:25:15;;;;;;;9.13;2.70;;;14.50;99.90;;;;;;5071566;28;20478;-88
2022/10/08 09:27:51;;;;;;;7.93;2.42;;;15.00;99.90;;;;;;5074781;28;20028;-88
2022/10/08 09:30:23;;;;;;;9.48;2.55;;;15.30;99.90;;;;;;5066222;28;20039;-88
2022/10/08 09:32:51;;;;;;;9.40;2.40;;;15.50;99.90;;;;;;5088809;28;20795;-88
2022/10/08 09:35:21;;;;;;;10.90;3.92;;;15.50;99.90;;;;;;5087652;28;20024;-88
2022/10/08 09:37:48;;;;;;;10.45;2.50;;;15.90;99.90;;;;;;5091724;28;20145;-88
2022/10/08 09:40:20;;;;;;;12.75;2.50;;;15.90;99.90;;;;;;5071484;28;20535;-88
2022/10/08 09:43:18;;;;;;;8.70;2.03;;;15.70;99.90;;;;;;5092307;28;20119;-88
2022/10/08 09:45:48;;;;;;;12.95;2.70;;;15.80;99.90;;;;;;5067806;28;20475;-88
2022/10/08 09:48:24;;;;;;;10.73;1.92;;;15.90;99.90;;;;;;5074215;28;20036;-89
2022/10/08 09:51:10;;;;;;;9.32;2.13;;;16.20;99.90;;;;;;5085965;28;20123;-88
2022/10/08 09:53:40;;;;;;;11.13;3.15;;;16.00;99.90;;;;;;5072871;28;20028;-89
2022/10/08 09:56:07;;;;;;;10.73;1.80;;;16.20;99.90;;;;;;5114454;27;20024;-89
2022/10/08 09:58:39;;;;;;;7.40;1.88;;;16.10;99.90;;;;;;5075162;28;20017;-88
2022/10/08 10:01:11;;;;;;;6.20;2.83;;;16.10;99.90;;;;;;5109844;28;20028;-88
2022/10/08 10:03:37;;;;;;;8.68;2.30;;;16.40;99.90;;;;;;5090539;28;20039;-88
2022/10/08 10:06:03;;;;;;;6.72;1.80;;;16.30;99.90;;;;;;5071108;28;20028;-88
2022/10/08 10:08:55;;;;;;;8.68;2.20;;;16.30;99.90;;;;;;5091901;28;20027;-88
2022/10/08 10:11:49;;;;;;;8.55;1.90;;;16.40;99.90;;;;;;5082224;28;20041;-88
2022/10/08 10:14:27;;;;;;;9.70;2.25;;;16.30;99.90;;;;;;5070892;28;20521;-89
2022/10/08 10:17:14;;;;;;;7.32;2.10;;;16.00;99.90;;;;;;5068779;28;20078;-88
2022/10/08 10:19:56;;;;;;;9.63;1.88;;;16.00;99.90;;;;;;5090566;28;20036;-89
2022/10/08 10:22:57;;;;;;;;;;;16.00;99.90;;;;;;5071072;28;20123;-88
2022/10/08 10:25:46;;;;;;;15.70;2.07;;;16.20;99.90;;;;;;5036249;28;20008;-88
2022/10/08 10:28:18;;;;;;;7.72;1.85;;;16.30;99.90;;;;;;5069290;28;20500;-88
2022/10/08 10:31:29;;;;;;;6.20;1.70;;;16.20;99.90;;;;;;5091102;28;20033;-88
2022/10/08 10:34:13;;;;;;;7.70;1.80;;;16.10;99.90;;;;;;5066327;28;20048;-89
2022/10/08 10:36:48;;;;;;;7.18;1.83;;;16.10;99.90;;;;;;5075976;28;20039;-88
2022/10/08 10:39:26;;;;;;;9.70;2.47;;;16.10;99.90;;;;;;5087483;28;20054;-88
2022/10/08 10:41:57;;;;;;;8.93;1.85;;;16.40;99.90;;;;;;5091114;28;20055;-88
2022/10/08 10:44:48;;;;;;;6.95;1.50;;;16.80;99.90;;;;;;5087965;28;20056;-88
2022/10/08 10:47:14;;;;;;;5.38;2.08;;;16.90;99.90;;;;;;5080301;28;20533;-88
2022/10/08 10:49:42;;;;;;;5.82;1.70;;;17.00;99.90;;;;;;5070261;28;20463;-88
2022/10/08 10:52:19;;;;;;;10.80;1.75;;;17.50;99.90;;;;;;5076855;28;20036;-90
2022/10/08 10:55:20;;;;;;;8.70;1.75;;;17.70;99.90;;;;;;5089652;28;20085;-90
2022/10/08 10:58:20;;;;;;;3.95;1.85;;;17.00;99.90;;;;;;5059837;28;20097;-89
2022/10/08 11:01:04;;;;;;;15.03;2.43;;;16.30;99.90;;;;;;5072467;28;20065;-90
2022/10/08 11:03:46;;;;;;;5.88;1.92;;;15.90;99.90;;;;;;5071961;28;20032;-89
2022/10/08 11:06:36;;;;;;;9.00;1.90;;;15.80;99.90;;;;;;5072554;28;20502;-90
2022/10/08 11:09:29;;;;;;;6.00;1.67;;;16.10;99.90;;;;;;5088930;28;20071;-89
2022/10/08 11:12:23;;;;;;;14.93;2.30;;;15.80;99.90;;;;;;5074277;28;20038;-89
2022/10/08 11:15:07;;;;;;;11.43;1.70;;;15.80;99.90;;;;;;5069079;28;20037;-89
2022/10/08 11:17:46;;;;;;;9.13;1.60;;;16.30;99.90;;;;;;5068366;28;20028;-89
2022/10/08 11:20:17;;;;;;;7.57;2.17;;;16.50;99.90;;;;;;5086024;28;20035;-89
2022/10/08 11:22:52;;;;;;;;;;;16.10;99.90;;;;;;5069262;28;20190;-89
2022/10/08 11:25:49;;;;;;;10.00;1.93;;;16.10;99.90;;;;;;5089717;28;19908;-90
2022/10/08 11:28:45;;;;;;;10.70;2.55;;;16.10;99.90;;;;;;5074127;28;20039;-89
2022/10/08 11:31:25;;;;;;;9.77;2.22;;;15.50;99.90;;;;;;5084463;28;20053;-89
2022/10/08 11:33:54;;;;;;;7.83;2.07;;;15.30;99.90;;;;;;5065237;28;20032;-89
2022/10/08 11:36:47;;;;;;;10.48;2.30;;;15.10;99.90;;;;;;5085092;28;20266;-90
2022/10/08 11:39:19;;;;;;;11.13;2.20;;;15.20;99.90;;;;;;5069469;28;20063;-90
2022/10/08 11:42:16;;;;;;;15.70;1.98;;;15.00;99.90;;;;;;5071989;28;20016;-89
2022/10/08 11:44:42;;;;;;;6.10;2.00;;;14.70;99.90;;;;;;5086413;28;20475;-89
2022/10/08 11:47:41;;;;;;;4.03;1.63;;;14.30;99.90;;;;;;5082528;28;20067;-90
2022/10/08 11:50:35;;;;;;;6.13;1.70;;;14.10;99.90;;;;;;5056892;28;20114;-89
2022/10/08 11:53:17;;;;;;;9.15;2.05;;;14.00;99.90;;;;;;5090359;28;20776;-89
2022/10/08 11:55:57;;;;;;;10.20;2.15;;;13.90;99.90;;;;;;5066202;28;20028;-89
2022/10/08 11:58:32;;;;;;;7.30;1.75;;;13.90;99.90;;;;;;5091573;28;20024;-89
2022/10/08 12:01:06;;;;;;;12.85;2.45;;;14.10;99.90;;;;;;5089350;28;20422;-88
2022/10/08 12:03:36;;;;;;;15.32;2.03;;;14.20;99.90;;;;;;5088113;28;20032;-90
2022/10/08 12:06:25;;;;;;;7.68;2.05;;;14.20;99.90;;;;;;5084860;28;20032;-89
2022/10/08 12:08:58;;;;;;;6.45;1.90;;;14.40;99.90;;;;;;5079286;28;20067;-89
2022/10/08 12:11:39;;;;;;;9.57;1.65;;;14.70;99.90;;;;;;5080614;28;20032;-89
2022/10/08 12:16:47;;;;;;;7.80;2.10;;;14.40;99.90;;;;;;5072344;28;20028;-90
2022/10/08 12:19:31;;;;;;;10.30;2.80;;;14.10;99.90;;;;;;5083776;28;20057;-89
2022/10/08 12:22:04;;;;;;;12.35;2.13;;;13.90;99.90;;;;;;5072113;28;20061;-89
2022/10/08 12:24:51;;;;;;;8.50;2.20;;;13.60;99.90;;;;;;5055013;28;19915;-90
2022/10/08 12:27:17;;;;;;;7.00;2.60;;;13.50;99.90;;;;;;5066051;28;20198;-89
2022/10/08 12:29:56;;;;;;;13.75;2.47;;;13.50;99.90;;;;;;5072301;28;20436;-90
2022/10/08 12:32:25;;;;;;;3.83;1.80;;;13.60;99.90;;;;;;5055272;28;20178;-89
2022/10/08 12:34:51;;;;;;;14.45;2.60;;;13.70;99.90;;;;;;5054622;28;20016;-89
2022/10/08 12:37:35;;;;;;;8.00;2.38;;;13.70;99.90;;;;;;5054777;28;20035;-89
2022/10/08 12:40:18;;;;;;;22.15;3.88;;;14.00;99.90;;;;;;5071916;28;20031;-89
2022/10/08 12:42:47;;;;;;;12.20;2.25;;;14.30;99.90;;;;;;5055031;28;20043;-89
2022/10/08 12:45:15;;;;;;;10.48;2.38;;;14.30;99.90;;;;;;5058026;28;20073;-89
2022/10/08 12:48:32;;;;;;;7.82;2.28;;;14.40;99.90;;;;;;5071464;28;20025;-89
2022/10/08 12:51:00;;;;;;;12.65;2.72;;;14.40;99.90;;;;;;5008736;28;20070;-89
2022/10/08 12:53:26;;;;;;;10.40;2.78;;;14.50;99.90;;;;;;5030447;28;20030;-88
2022/10/08 12:55:55;;;;;;;8.75;2.92;;;14.70;99.90;;;;;;5044062;28;20487;-89
2022/10/08 12:58:25;;;;;;;13.18;3.75;;;15.10;99.90;;;;;;5071065;28;20174;-89
2022/10/08 13:00:58;;;;;;;15.20;4.60;;;15.30;99.90;;;;;;5071374;28;20106;-89
2022/10/08 13:03:24;;;;;;;34.78;16.63;;;15.30;99.90;;;;;;5054460;28;20033;-89
2022/10/08 13:05:54;;;;;;;10.07;3.95;;;15.20;99.90;;;;;;5074165;28;20028;-90
2022/10/08 13:08:37;;;;;;;22.67;9.35;;;15.00;99.90;;;;;;5059036;28;20028;-89